METAR Analyzer

List View

Hello, Guest. (Login)

RJCC/CTS  -  札幌/新千歳

Obs at
2020-10-25 12:30 (UTC) (25min ago)
Temp
9
Dew-pt
5
T-Td
4
RH
76%
QNH
1007.1hPa
Est. Station Pressure
1004.1hPa
Est. SLP
1007.1hPa
Feels like
1
(no wind)
11.9
HI
7.9
Temp chg in 24h
+1
Feels-like chg in 24h
+4.2
HI chg in 24h
+1.2
H-Vis
>10000m
V-Vis
No data
CIG
5000ft AGL
V/I
VMC (VFR)
RVR
No RVR data
Wind
5kt from 220°
Gust
No gust
Precipitation
Not reported
Other Wx
Not reported
Clouds
Few (1/8) Cumulus @ 2000ft AGL / Broken (5/8) Cumulus @ 5000ft AGL

RJCC 251230Z 22005KT 9999 FEW020 BKN050 09/05 Q1007 RMK 1CU020 5CU050 A2974

RJTT/HND  -  東京/羽田

Obs at
2020-10-25 12:30 (UTC) (25min ago)
Temp
16
Dew-pt
10
T-Td
6
RH
67.5%
QNH
1014.9hPa
Est. Station Pressure
1014.2hPa
Est. SLP
1014.9hPa
Feels like
9.3
(no wind)
17.3
HI
15.4
Temp chg in 24h
-1
Feels-like chg in 24h
+2.3
HI chg in 24h
-0.7
H-Vis
>10000m
V-Vis
No data
CIG
No dense clouds
V/I
VMC (VFR)
RVR
No RVR data
Wind
5kt from 270°
Gust
No gust
Precipitation
Not reported
Other Wx
Not reported
Clouds
Not reported

RJTT 251230Z 27005KT CAVOK 16/10 Q1014 NOSIG RMK A2997

RJAA/NRT  -  東京/成田

Obs at
2020-10-25 12:30 (UTC) (25min ago)
Temp
11
Dew-pt
7
T-Td
4
RH
76.3%
QNH
1014.9hPa
Est. Station Pressure
1013.6hPa
Est. SLP
1014.9hPa
Feels like
4.3
(no wind)
13.5
HI
10.1
Temp chg in 24h
-3
Feels-like chg in 24h
-3.4
HI chg in 24h
-3.6
H-Vis
>10000m
V-Vis
No data
CIG
No dense clouds
V/I
VMC (VFR)
RVR
No RVR data
Wind
4kt from 210°
Gust
No gust
Precipitation
Not reported
Other Wx
Not reported
Clouds
Few (1/8) Cumulus @ 3000ft AGL

RJAA 251230Z 21004KT 9999 FEW030 11/07 Q1014 NOSIG RMK 1CU030 A2997

RJGG/NGO  -  名古屋/中部

Obs at
2020-10-25 12:30 (UTC) (25min ago)
Temp
17
Dew-pt
10
T-Td
7
RH
63.4%
QNH
1016.9hPa
Est. Station Pressure
1016.4hPa
Est. SLP
1016.9hPa
Feels like
8
(no wind)
17.9
HI
16.4
Temp chg in 24h
+1
Feels-like chg in 24h
+2.6
HI chg in 24h
+1.2
H-Vis
>10000m
V-Vis
No data
CIG
No dense clouds
V/I
VMC (VFR)
RVR
No RVR data
Wind
11kt from 300°
Gust
No gust
Precipitation
Not reported
Other Wx
Not reported
Clouds
Few (1/8) Stratocumulus @ 4000ft AGL

RJGG 251230Z 30011KT 9999 FEW040 17/10 Q1017 NOSIG RMK 1SC040 A3003

RJOO/ITM  -  大阪/伊丹

Obs at
2020-10-25 11:00 (UTC) (115min ago)
Temp
14
Dew-pt
9
T-Td
5
RH
71.8%
QNH
1017.6hPa
Est. Station Pressure
1016.2hPa
Est. SLP
1017.7hPa
Feels like
6.3
(no wind)
15.8
HI
13.3
Temp chg in 24h
-1
Feels-like chg in 24h
+0.3
HI chg in 24h
-0.6
H-Vis
>10000m
V-Vis
No data
CIG
No dense clouds
V/I
VMC (VFR)
RVR
No RVR data
Wind
6kt from 320°
Gust
No gust
Precipitation
Not reported
Other Wx
Not reported
Clouds
Not reported

RJOO 251100Z 32006KT CAVOK 14/09 Q1017 RMK A3005

RJBB/KIX  -  大阪/関西

Obs at
2020-10-25 12:30 (UTC) (25min ago)
Temp
16
Dew-pt
10
T-Td
6
RH
67.5%
QNH
1018hPa
Est. Station Pressure
1017.4hPa
Est. SLP
1018.0hPa
Feels like
7.8
(no wind)
17.3
HI
15.4
Temp chg in 24h
±0
Feels-like chg in 24h
+2.4
HI chg in 24h
+0.3
H-Vis
>10000m
V-Vis
No data
CIG
No dense clouds
V/I
VMC (VFR)
RVR
No RVR data
Wind
8kt from 160°
Gust
No gust
Precipitation
Not reported
Other Wx
Not reported
Clouds
Few clouds @ 4500ft AGL / Scattered clouds @ 6000ft AGL

RJBB 251230Z 16008KT 9999 FEW045 SCT060 16/10 Q1018 NOSIG

株式会社マネーパートナーズ 【Manepa Card】

RJFF/FUK  -  福岡

Obs at
2020-10-25 12:30 (UTC) (25min ago)
Temp
15
Dew-pt
10
T-Td
5
RH
72%
QNH
1019.0hPa
Est. Station Pressure
1017.9hPa
Est. SLP
1019.0hPa
Feels like
9.9
(no wind)
16.6
HI
14.4
Temp chg in 24h
+2
Feels-like chg in 24h
+5.4
HI chg in 24h
+2.2
H-Vis
>10000m
V-Vis
No data
CIG
No dense clouds
V/I
VMC (VFR)
RVR
No RVR data
Wind
3kt from 80° (20° ~ 150°)
Gust
No gust
Precipitation
Not reported
Other Wx
Not reported
Clouds
Not reported

RJFF 251230Z 08003KT 020V150 CAVOK 15/10 Q1019 NOSIG RMK A3009

ROAH/OKA  -  那覇

Obs at
2020-10-25 12:30 (UTC) (25min ago)
Temp
23
Dew-pt
14
T-Td
9
RH
56.9%
QNH
1017.3hPa
Est. Station Pressure
1016.9hPa
Est. SLP
1017.3hPa
Feels like
15.8
(no wind)
22.1
HI
22.8
Temp chg in 24h
+1
Feels-like chg in 24h
+1
HI chg in 24h
+1.1
H-Vis
>10000m
V-Vis
No data
CIG
23000ft AGL
V/I
VMC (VFR)
RVR
No RVR data
Wind
9kt from 30°
Gust
No gust
Precipitation
Not reported
Other Wx
Not reported
Clouds
Few (1/8) Stratocumulus @ 4000ft AGL / Scattered (3/8) Altocumulus @ 21000ft AGL / Broken (5/8) Altocumulus @ 23000ft AGL

ROAH 251230Z 03009KT 9999 FEW040 SCT210 BKN230 23/14 Q1017 RMK 1SC040 3AC210 5AC230 A3004

18.4msec